sensor_id;sensor_type;location;lat;lon;timestamp;P1;durP1;ratioP1;P2;durP2;ratioP2
46090;SDS011;31826;53.572;10.170;2023-08-12T00:00:50;5.30;;;2.50;;
46090;SDS011;31826;53.572;10.170;2023-08-12T00:03:16;4.67;;;2.20;;
46090;SDS011;31826;53.572;10.170;2023-08-12T00:05:42;4.30;;;2.20;;
46090;SDS011;31826;53.572;10.170;2023-08-12T00:08:08;5.00;;;2.33;;
46090;SDS011;31826;53.572;10.170;2023-08-12T00:10:34;4.70;;;2.20;;
46090;SDS011;31826;53.572;10.170;2023-08-12T00:13:00;3.70;;;2.00;;
46090;SDS011;31826;53.572;10.170;2023-08-12T00:15:25;3.90;;;2.30;;
46090;SDS011;31826;53.572;10.170;2023-08-12T00:17:51;3.63;;;2.17;;
46090;SDS011;31826;53.572;10.170;2023-08-12T00:20:17;6.90;;;2.15;;
46090;SDS011;31826;53.572;10.170;2023-08-12T00:22:43;5.00;;;2.28;;
46090;SDS011;31826;53.572;10.170;2023-08-12T00:25:09;3.88;;;2.30;;
46090;SDS011;31826;53.572;10.170;2023-08-12T00:27:35;5.57;;;2.35;;
46090;SDS011;31826;53.572;10.170;2023-08-12T00:30:02;3.50;;;2.28;;
46090;SDS011;31826;53.572;10.170;2023-08-12T00:32:29;3.70;;;2.17;;
46090;SDS011;31826;53.572;10.170;2023-08-12T00:34:55;4.07;;;2.30;;
46090;SDS011;31826;53.572;10.170;2023-08-12T00:37:21;6.72;;;2.28;;
46090;SDS011;31826;53.572;10.170;2023-08-12T00:39:46;5.55;;;2.28;;
46090;SDS011;31826;53.572;10.170;2023-08-12T00:42:12;6.55;;;2.13;;
46090;SDS011;31826;53.572;10.170;2023-08-12T00:44:38;4.63;;;2.10;;
46090;SDS011;31826;53.572;10.170;2023-08-12T00:47:03;5.73;;;2.37;;
46090;SDS011;31826;53.572;10.170;2023-08-12T00:49:30;4.28;;;2.17;;
46090;SDS011;31826;53.572;10.170;2023-08-12T00:51:57;5.22;;;2.10;;
46090;SDS011;31826;53.572;10.170;2023-08-12T00:54:24;6.13;;;2.20;;
46090;SDS011;31826;53.572;10.170;2023-08-12T00:56:51;6.05;;;2.28;;
46090;SDS011;31826;53.572;10.170;2023-08-12T00:59:18;3.33;;;2.10;;
46090;SDS011;31826;53.572;10.170;2023-08-12T01:01:45;5.25;;;2.30;;
46090;SDS011;31826;53.572;10.170;2023-08-12T01:04:12;3.95;;;2.22;;
46090;SDS011;31826;53.572;10.170;2023-08-12T01:06:37;5.25;;;2.67;;
46090;SDS011;31826;53.572;10.170;2023-08-12T01:09:04;7.35;;;2.13;;
46090;SDS011;31826;53.572;10.170;2023-08-12T01:11:46;8.20;;;2.67;;
46090;SDS011;31826;53.572;10.170;2023-08-12T01:14:18;4.95;;;2.30;;
46090;SDS011;31826;53.572;10.170;2023-08-12T01:17:01;4.80;;;1.95;;
46090;SDS011;31826;53.572;10.170;2023-08-12T01:19:32;5.95;;;2.22;;
46090;SDS011;31826;53.572;10.170;2023-08-12T01:22:03;5.70;;;2.40;;
46090;SDS011;31826;53.572;10.170;2023-08-12T01:24:39;4.18;;;2.50;;
46090;SDS011;31826;53.572;10.170;2023-08-12T01:27:07;5.43;;;2.33;;
46090;SDS011;31826;53.572;10.170;2023-08-12T01:29:35;6.25;;;2.35;;
46090;SDS011;31826;53.572;10.170;2023-08-12T01:32:21;4.93;;;2.40;;
46090;SDS011;31826;53.572;10.170;2023-08-12T01:34:53;6.53;;;2.40;;
46090;SDS011;31826;53.572;10.170;2023-08-12T01:37:26;6.15;;;2.10;;
46090;SDS011;31826;53.572;10.170;2023-08-12T01:39:54;5.70;;;2.80;;
46090;SDS011;31826;53.572;10.170;2023-08-12T01:42:21;7.18;;;2.25;;
46090;SDS011;31826;53.572;10.170;2023-08-12T01:44:47;3.92;;;2.05;;
46090;SDS011;31826;53.572;10.170;2023-08-12T01:47:19;7.30;;;2.17;;
46090;SDS011;31826;53.572;10.170;2023-08-12T01:49:45;3.65;;;2.10;;
46090;SDS011;31826;53.572;10.170;2023-08-12T01:52:11;4.25;;;2.35;;
46090;SDS011;31826;53.572;10.170;2023-08-12T01:54:36;4.70;;;2.40;;
46090;SDS011;31826;53.572;10.170;2023-08-12T01:57:02;3.83;;;2.20;;
46090;SDS011;31826;53.572;10.170;2023-08-12T01:59:33;5.40;;;2.00;;
46090;SDS011;31826;53.572;10.170;2023-08-12T02:02:03;4.63;;;2.22;;
46090;SDS011;31826;53.572;10.170;2023-08-12T02:04:29;3.75;;;1.98;;
46090;SDS011;31826;53.572;10.170;2023-08-12T02:06:55;6.32;;;2.22;;
46090;SDS011;31826;53.572;10.170;2023-08-12T02:09:21;5.90;;;2.25;;
46090;SDS011;31826;53.572;10.170;2023-08-12T02:11:49;4.25;;;2.40;;
46090;SDS011;31826;53.572;10.170;2023-08-12T02:14:15;5.38;;;2.30;;
46090;SDS011;31826;53.572;10.170;2023-08-12T02:16:40;5.57;;;2.28;;
46090;SDS011;31826;53.572;10.170;2023-08-12T02:19:06;8.43;;;2.20;;
46090;SDS011;31826;53.572;10.170;2023-08-12T02:21:32;4.85;;;2.17;;
46090;SDS011;31826;53.572;10.170;2023-08-12T02:23:58;6.03;;;2.40;;
46090;SDS011;31826;53.572;10.170;2023-08-12T02:26:23;4.33;;;2.40;;
46090;SDS011;31826;53.572;10.170;2023-08-12T02:28:49;5.00;;;2.20;;
46090;SDS011;31826;53.572;10.170;2023-08-12T02:31:15;5.47;;;2.30;;
46090;SDS011;31826;53.572;10.170;2023-08-12T02:33:41;5.53;;;2.30;;
46090;SDS011;31826;53.572;10.170;2023-08-12T02:36:07;4.18;;;2.50;;
46090;SDS011;31826;53.572;10.170;2023-08-12T02:38:32;4.38;;;2.13;;
46090;SDS011;31826;53.572;10.170;2023-08-12T02:40:58;5.17;;;2.20;;
46090;SDS011;31826;53.572;10.170;2023-08-12T02:43:24;4.37;;;2.13;;
46090;SDS011;31826;53.572;10.170;2023-08-12T02:45:49;5.55;;;2.50;;
46090;SDS011;31826;53.572;10.170;2023-08-12T02:48:15;3.25;;;2.13;;
46090;SDS011;31826;53.572;10.170;2023-08-12T02:50:41;6.75;;;2.15;;
46090;SDS011;31826;53.572;10.170;2023-08-12T02:53:07;5.23;;;2.37;;
46090;SDS011;31826;53.572;10.170;2023-08-12T02:55:33;4.47;;;2.22;;
46090;SDS011;31826;53.572;10.170;2023-08-12T02:57:59;5.57;;;2.20;;
46090;SDS011;31826;53.572;10.170;2023-08-12T03:00:28;4.07;;;2.17;;
46090;SDS011;31826;53.572;10.170;2023-08-12T03:02:54;3.90;;;2.17;;
46090;SDS011;31826;53.572;10.170;2023-08-12T03:05:20;3.35;;;1.90;;
46090;SDS011;31826;53.572;10.170;2023-08-12T03:07:46;4.55;;;2.10;;
46090;SDS011;31826;53.572;10.170;2023-08-12T03:10:12;6.00;;;2.40;;
46090;SDS011;31826;53.572;10.170;2023-08-12T03:12:37;6.57;;;2.40;;
46090;SDS011;31826;53.572;10.170;2023-08-12T03:15:03;3.97;;;2.00;;
46090;SDS011;31826;53.572;10.170;2023-08-12T03:17:31;3.10;;;2.08;;
46090;SDS011;31826;53.572;10.170;2023-08-12T03:19:57;3.50;;;2.20;;
46090;SDS011;31826;53.572;10.170;2023-08-12T03:22:29;4.30;;;2.00;;
46090;SDS011;31826;53.572;10.170;2023-08-12T03:24:55;4.93;;;2.10;;
46090;SDS011;31826;53.572;10.170;2023-08-12T03:27:20;4.13;;;2.20;;
46090;SDS011;31826;53.572;10.170;2023-08-12T03:29:46;4.13;;;2.20;;
46090;SDS011;31826;53.572;10.170;2023-08-12T03:32:12;4.72;;;2.35;;
46090;SDS011;31826;53.572;10.170;2023-08-12T03:34:38;4.60;;;2.73;;
46090;SDS011;31826;53.572;10.170;2023-08-12T03:37:04;4.73;;;2.60;;
46090;SDS011;31826;53.572;10.170;2023-08-12T03:39:30;4.47;;;2.00;;
46090;SDS011;31826;53.572;10.170;2023-08-12T03:41:56;3.78;;;2.20;;
46090;SDS011;31826;53.572;10.170;2023-08-12T03:44:21;4.03;;;2.22;;
46090;SDS011;31826;53.572;10.170;2023-08-12T03:46:47;5.35;;;2.20;;
46090;SDS011;31826;53.572;10.170;2023-08-12T03:49:13;3.95;;;2.25;;
46090;SDS011;31826;53.572;10.170;2023-08-12T03:51:38;4.73;;;2.37;;
46090;SDS011;31826;53.572;10.170;2023-08-12T03:54:04;6.50;;;2.37;;
46090;SDS011;31826;53.572;10.170;2023-08-12T03:56:30;4.90;;;2.47;;
46090;SDS011;31826;53.572;10.170;2023-08-12T03:58:56;5.10;;;2.30;;
46090;SDS011;31826;53.572;10.170;2023-08-12T04:01:22;3.78;;;2.10;;
46090;SDS011;31826;53.572;10.170;2023-08-12T04:03:48;3.95;;;2.30;;
46090;SDS011;31826;53.572;10.170;2023-08-12T04:06:13;6.07;;;2.50;;
46090;SDS011;31826;53.572;10.170;2023-08-12T04:08:39;5.53;;;2.37;;
46090;SDS011;31826;53.572;10.170;2023-08-12T04:11:05;6.77;;;2.40;;
46090;SDS011;31826;53.572;10.170;2023-08-12T04:13:30;4.35;;;2.30;;
46090;SDS011;31826;53.572;10.170;2023-08-12T04:15:56;7.00;;;2.10;;
46090;SDS011;31826;53.572;10.170;2023-08-12T04:18:22;5.85;;;2.40;;
46090;SDS011;31826;53.572;10.170;2023-08-12T04:20:51;4.97;;;2.60;;
46090;SDS011;31826;53.572;10.170;2023-08-12T04:23:18;6.20;;;2.38;;
46090;SDS011;31826;53.572;10.170;2023-08-12T04:25:44;4.03;;;2.05;;
46090;SDS011;31826;53.572;10.170;2023-08-12T04:28:12;5.95;;;2.05;;
46090;SDS011;31826;53.572;10.170;2023-08-12T04:30:45;5.37;;;2.30;;
46090;SDS011;31826;53.572;10.170;2023-08-12T04:33:12;3.85;;;2.40;;
46090;SDS011;31826;53.572;10.170;2023-08-12T04:35:39;4.03;;;2.28;;
46090;SDS011;31826;53.572;10.170;2023-08-12T04:38:05;7.38;;;2.33;;
46090;SDS011;31826;53.572;10.170;2023-08-12T04:40:31;5.20;;;2.63;;
46090;SDS011;31826;53.572;10.170;2023-08-12T04:42:58;6.30;;;2.50;;
46090;SDS011;31826;53.572;10.170;2023-08-12T04:45:24;4.63;;;2.47;;
46090;SDS011;31826;53.572;10.170;2023-08-12T04:47:49;6.60;;;2.60;;
46090;SDS011;31826;53.572;10.170;2023-08-12T04:50:15;8.17;;;2.73;;
46090;SDS011;31826;53.572;10.170;2023-08-12T04:52:41;5.85;;;2.60;;
46090;SDS011;31826;53.572;10.170;2023-08-12T04:55:07;4.63;;;2.38;;
46090;SDS011;31826;53.572;10.170;2023-08-12T04:57:33;6.25;;;2.65;;
46090;SDS011;31826;53.572;10.170;2023-08-12T04:59:58;5.30;;;2.40;;
46090;SDS011;31826;53.572;10.170;2023-08-12T05:02:24;5.78;;;2.70;;
46090;SDS011;31826;53.572;10.170;2023-08-12T05:04:50;6.00;;;2.70;;
46090;SDS011;31826;53.572;10.170;2023-08-12T05:07:16;4.88;;;2.70;;
46090;SDS011;31826;53.572;10.170;2023-08-12T05:09:43;7.15;;;2.92;;
46090;SDS011;31826;53.572;10.170;2023-08-12T05:12:11;5.03;;;2.60;;
46090;SDS011;31826;53.572;10.170;2023-08-12T05:14:37;4.32;;;2.40;;
46090;SDS011;31826;53.572;10.170;2023-08-12T05:17:04;6.20;;;2.70;;
46090;SDS011;31826;53.572;10.170;2023-08-12T05:19:30;5.28;;;2.30;;
46090;SDS011;31826;53.572;10.170;2023-08-12T05:21:56;7.32;;;2.60;;
46090;SDS011;31826;53.572;10.170;2023-08-12T05:24:22;4.97;;;2.33;;
46090;SDS011;31826;53.572;10.170;2023-08-12T05:26:48;4.40;;;2.37;;
46090;SDS011;31826;53.572;10.170;2023-08-12T05:29:13;3.80;;;2.00;;
46090;SDS011;31826;53.572;10.170;2023-08-12T05:31:39;4.78;;;2.30;;
46090;SDS011;31826;53.572;10.170;2023-08-12T05:34:05;5.90;;;2.83;;
46090;SDS011;31826;53.572;10.170;2023-08-12T05:36:31;4.78;;;2.50;;
46090;SDS011;31826;53.572;10.170;2023-08-12T05:38:56;5.23;;;2.30;;
46090;SDS011;31826;53.572;10.170;2023-08-12T05:41:22;4.73;;;2.47;;
46090;SDS011;31826;53.572;10.170;2023-08-12T05:43:48;5.87;;;2.67;;
46090;SDS011;31826;53.572;10.170;2023-08-12T05:46:14;5.28;;;2.80;;
46090;SDS011;31826;53.572;10.170;2023-08-12T05:48:40;6.22;;;2.40;;
46090;SDS011;31826;53.572;10.170;2023-08-12T05:51:05;5.03;;;2.47;;
46090;SDS011;31826;53.572;10.170;2023-08-12T05:53:31;8.27;;;2.60;;
46090;SDS011;31826;53.572;10.170;2023-08-12T05:55:58;6.13;;;2.47;;
46090;SDS011;31826;53.572;10.170;2023-08-12T05:58:24;4.00;;;2.33;;
46090;SDS011;31826;53.572;10.170;2023-08-12T06:00:49;6.97;;;3.37;;
46090;SDS011;31826;53.572;10.170;2023-08-12T06:03:15;4.32;;;2.45;;
46090;SDS011;31826;53.572;10.170;2023-08-12T06:05:42;4.30;;;2.47;;
46090;SDS011;31826;53.572;10.170;2023-08-12T06:08:11;6.35;;;2.60;;
46090;SDS011;31826;53.572;10.170;2023-08-12T06:10:37;5.53;;;2.70;;
46090;SDS011;31826;53.572;10.170;2023-08-12T06:13:03;5.03;;;2.67;;
46090;SDS011;31826;53.572;10.170;2023-08-12T06:15:29;5.63;;;2.77;;
46090;SDS011;31826;53.572;10.170;2023-08-12T06:17:55;7.57;;;2.70;;
46090;SDS011;31826;53.572;10.170;2023-08-12T06:20:22;5.70;;;2.72;;
46090;SDS011;31826;53.572;10.170;2023-08-12T06:22:48;6.97;;;2.80;;
46090;SDS011;31826;53.572;10.170;2023-08-12T06:25:14;5.65;;;2.92;;
46090;SDS011;31826;53.572;10.170;2023-08-12T06:27:40;4.65;;;2.70;;
46090;SDS011;31826;53.572;10.170;2023-08-12T06:30:06;6.15;;;3.00;;
46090;SDS011;31826;53.572;10.170;2023-08-12T06:32:33;6.55;;;2.85;;
46090;SDS011;31826;53.572;10.170;2023-08-12T06:34:59;6.30;;;2.80;;
46090;SDS011;31826;53.572;10.170;2023-08-12T06:37:25;7.60;;;3.27;;
46090;SDS011;31826;53.572;10.170;2023-08-12T06:39:50;7.97;;;3.38;;
46090;SDS011;31826;53.572;10.170;2023-08-12T06:42:16;5.45;;;2.97;;
46090;SDS011;31826;53.572;10.170;2023-08-12T06:44:42;6.60;;;3.20;;
46090;SDS011;31826;53.572;10.170;2023-08-12T06:47:07;4.73;;;2.67;;
46090;SDS011;31826;53.572;10.170;2023-08-12T06:49:33;7.05;;;3.30;;
46090;SDS011;31826;53.572;10.170;2023-08-12T06:51:59;6.85;;;3.20;;
46090;SDS011;31826;53.572;10.170;2023-08-12T06:54:24;7.77;;;3.60;;
46090;SDS011;31826;53.572;10.170;2023-08-12T06:56:50;6.65;;;3.33;;
46090;SDS011;31826;53.572;10.170;2023-08-12T06:59:16;7.35;;;3.50;;
46090;SDS011;31826;53.572;10.170;2023-08-12T07:01:42;10.18;;;3.63;;
46090;SDS011;31826;53.572;10.170;2023-08-12T07:04:07;8.15;;;3.53;;
46090;SDS011;31826;53.572;10.170;2023-08-12T07:06:33;8.10;;;3.43;;
46090;SDS011;31826;53.572;10.170;2023-08-12T07:08:59;6.87;;;3.27;;
46090;SDS011;31826;53.572;10.170;2023-08-12T07:11:25;10.20;;;4.22;;
46090;SDS011;31826;53.572;10.170;2023-08-12T07:13:50;7.53;;;3.70;;
46090;SDS011;31826;53.572;10.170;2023-08-12T07:16:16;8.87;;;3.90;;
46090;SDS011;31826;53.572;10.170;2023-08-12T07:18:41;8.07;;;4.07;;
46090;SDS011;31826;53.572;10.170;2023-08-12T07:21:07;8.65;;;4.07;;
46090;SDS011;31826;53.572;10.170;2023-08-12T07:23:33;8.02;;;3.78;;
46090;SDS011;31826;53.572;10.170;2023-08-12T07:25:59;9.43;;;4.60;;
46090;SDS011;31826;53.572;10.170;2023-08-12T07:28:24;8.53;;;3.83;;
46090;SDS011;31826;53.572;10.170;2023-08-12T07:30:50;9.07;;;3.70;;
46090;SDS011;31826;53.572;10.170;2023-08-12T07:33:17;9.40;;;3.90;;
46090;SDS011;31826;53.572;10.170;2023-08-12T07:35:43;9.30;;;4.60;;
46090;SDS011;31826;53.572;10.170;2023-08-12T07:38:08;9.45;;;4.07;;
46090;SDS011;31826;53.572;10.170;2023-08-12T07:40:34;13.27;;;4.40;;
46090;SDS011;31826;53.572;10.170;2023-08-12T07:43:00;10.20;;;4.20;;
46090;SDS011;31826;53.572;10.170;2023-08-12T07:45:25;9.00;;;4.43;;
46090;SDS011;31826;53.572;10.170;2023-08-12T07:47:51;8.30;;;3.92;;
46090;SDS011;31826;53.572;10.170;2023-08-12T07:50:17;8.57;;;4.47;;
46090;SDS011;31826;53.572;10.170;2023-08-12T07:52:43;7.07;;;4.00;;
46090;SDS011;31826;53.572;10.170;2023-08-12T07:55:08;9.50;;;4.30;;
46090;SDS011;31826;53.572;10.170;2023-08-12T07:57:34;8.68;;;4.10;;
46090;SDS011;31826;53.572;10.170;2023-08-12T08:00:00;8.93;;;4.55;;
46090;SDS011;31826;53.572;10.170;2023-08-12T08:02:25;10.93;;;5.10;;
46090;SDS011;31826;53.572;10.170;2023-08-12T08:04:51;13.37;;;5.03;;
46090;SDS011;31826;53.572;10.170;2023-08-12T08:07:17;12.75;;;5.10;;
46090;SDS011;31826;53.572;10.170;2023-08-12T08:09:43;10.13;;;4.95;;
46090;SDS011;31826;53.572;10.170;2023-08-12T08:12:09;13.60;;;5.43;;
46090;SDS011;31826;53.572;10.170;2023-08-12T08:14:35;15.80;;;6.13;;
46090;SDS011;31826;53.572;10.170;2023-08-12T08:17:02;20.55;;;6.18;;
46090;SDS011;31826;53.572;10.170;2023-08-12T08:19:28;13.53;;;5.70;;
46090;SDS011;31826;53.572;10.170;2023-08-12T08:21:54;14.63;;;5.40;;
46090;SDS011;31826;53.572;10.170;2023-08-12T08:24:19;12.25;;;5.13;;
46090;SDS011;31826;53.572;10.170;2023-08-12T08:26:45;8.38;;;4.90;;
46090;SDS011;31826;53.572;10.170;2023-08-12T08:29:12;13.30;;;5.28;;
46090;SDS011;31826;53.572;10.170;2023-08-12T08:31:38;9.70;;;5.18;;
46090;SDS011;31826;53.572;10.170;2023-08-12T08:34:04;10.67;;;5.37;;
46090;SDS011;31826;53.572;10.170;2023-08-12T08:36:29;12.55;;;5.45;;
46090;SDS011;31826;53.572;10.170;2023-08-12T08:38:55;10.37;;;4.63;;
46090;SDS011;31826;53.572;10.170;2023-08-12T08:41:21;10.47;;;5.17;;
46090;SDS011;31826;53.572;10.170;2023-08-12T08:43:48;11.68;;;5.65;;
46090;SDS011;31826;53.572;10.170;2023-08-12T08:46:17;12.00;;;5.00;;
46090;SDS011;31826;53.572;10.170;2023-08-12T08:48:44;10.50;;;5.40;;
46090;SDS011;31826;53.572;10.170;2023-08-12T08:51:10;12.30;;;5.68;;
46090;SDS011;31826;53.572;10.170;2023-08-12T08:53:40;11.18;;;5.65;;
46090;SDS011;31826;53.572;10.170;2023-08-12T08:56:06;10.27;;;5.30;;
46090;SDS011;31826;53.572;10.170;2023-08-12T08:58:33;14.40;;;5.90;;
46090;SDS011;31826;53.572;10.170;2023-08-12T09:00:59;11.93;;;5.80;;
46090;SDS011;31826;53.572;10.170;2023-08-12T09:03:26;12.13;;;5.43;;
46090;SDS011;31826;53.572;10.170;2023-08-12T09:05:52;14.10;;;6.30;;
46090;SDS011;31826;53.572;10.170;2023-08-12T09:08:20;11.35;;;5.80;;
46090;SDS011;31826;53.572;10.170;2023-08-12T09:10:47;10.82;;;5.60;;
46090;SDS011;31826;53.572;10.170;2023-08-12T09:13:13;10.20;;;5.80;;
46090;SDS011;31826;53.572;10.170;2023-08-12T09:15:40;13.38;;;6.18;;
46090;SDS011;31826;53.572;10.170;2023-08-12T09:18:06;10.43;;;6.28;;
46090;SDS011;31826;53.572;10.170;2023-08-12T09:20:32;13.80;;;6.43;;
46090;SDS011;31826;53.572;10.170;2023-08-12T09:22:59;11.85;;;5.78;;
46090;SDS011;31826;53.572;10.170;2023-08-12T09:25:29;10.55;;;6.10;;
46090;SDS011;31826;53.572;10.170;2023-08-12T09:27:55;8.10;;;3.85;;
46090;SDS011;31826;53.572;10.170;2023-08-12T09:30:24;11.30;;;5.72;;
46090;SDS011;31826;53.572;10.170;2023-08-12T09:33:00;12.40;;;5.85;;
46090;SDS011;31826;53.572;10.170;2023-08-12T09:35:35;11.32;;;5.75;;
46090;SDS011;31826;53.572;10.170;2023-08-12T09:38:11;11.30;;;5.95;;
46090;SDS011;31826;53.572;10.170;2023-08-12T09:40:41;11.13;;;5.72;;
46090;SDS011;31826;53.572;10.170;2023-08-12T09:43:06;13.02;;;5.88;;
46090;SDS011;31826;53.572;10.170;2023-08-12T09:45:33;16.70;;;6.70;;
46090;SDS011;31826;53.572;10.170;2023-08-12T09:47:59;20.55;;;6.93;;
46090;SDS011;31826;53.572;10.170;2023-08-12T09:50:26;19.77;;;6.10;;
46090;SDS011;31826;53.572;10.170;2023-08-12T09:52:52;11.23;;;6.03;;
46090;SDS011;31826;53.572;10.170;2023-08-12T09:55:20;11.45;;;6.05;;
46090;SDS011;31826;53.572;10.170;2023-08-12T09:57:51;19.42;;;7.00;;
46090;SDS011;31826;53.572;10.170;2023-08-12T10:00:21;13.95;;;6.65;;
46090;SDS011;31826;53.572;10.170;2023-08-12T10:02:49;12.75;;;6.10;;
46090;SDS011;31826;53.572;10.170;2023-08-12T10:05:50;17.17;;;6.40;;
46090;SDS011;31826;53.572;10.170;2023-08-12T10:08:08;13.57;;;5.90;;
46090;SDS011;31826;53.572;10.170;2023-08-12T10:10:35;14.93;;;6.57;;
46090;SDS011;31826;53.572;10.170;2023-08-12T10:13:01;10.73;;;5.57;;
46090;SDS011;31826;53.572;10.170;2023-08-12T10:15:28;14.05;;;6.68;;
46090;SDS011;31826;53.572;10.170;2023-08-12T10:17:55;11.70;;;5.82;;
46090;SDS011;31826;53.572;10.170;2023-08-12T10:20:22;12.05;;;5.85;;
46090;SDS011;31826;53.572;10.170;2023-08-12T10:22:50;16.25;;;6.90;;
46090;SDS011;31826;53.572;10.170;2023-08-12T10:25:17;22.55;;;7.38;;
46090;SDS011;31826;53.572;10.170;2023-08-12T10:27:46;13.73;;;6.67;;
46090;SDS011;31826;53.572;10.170;2023-08-12T10:30:13;16.27;;;6.85;;
46090;SDS011;31826;53.572;10.170;2023-08-12T10:32:39;12.57;;;6.32;;
46090;SDS011;31826;53.572;10.170;2023-08-12T10:35:05;12.07;;;6.20;;
46090;SDS011;31826;53.572;10.170;2023-08-12T10:37:32;13.50;;;6.50;;
46090;SDS011;31826;53.572;10.170;2023-08-12T10:39:59;13.20;;;6.45;;
46090;SDS011;31826;53.572;10.170;2023-08-12T10:42:44;12.68;;;6.93;;
46090;SDS011;31826;53.572;10.170;2023-08-12T10:45:14;12.50;;;6.88;;
46090;SDS011;31826;53.572;10.170;2023-08-12T10:47:41;12.38;;;6.68;;
46090;SDS011;31826;53.572;10.170;2023-08-12T10:50:27;11.40;;;6.15;;
46090;SDS011;31826;53.572;10.170;2023-08-12T10:52:55;10.85;;;5.90;;
46090;SDS011;31826;53.572;10.170;2023-08-12T10:55:22;12.23;;;6.07;;
46090;SDS011;31826;53.572;10.170;2023-08-12T10:57:52;11.43;;;6.10;;
46090;SDS011;31826;53.572;10.170;2023-08-12T11:00:28;11.35;;;5.82;;
46090;SDS011;31826;53.572;10.170;2023-08-12T11:02:55;14.02;;;6.15;;
46090;SDS011;31826;53.572;10.170;2023-08-12T11:05:22;11.75;;;6.00;;
46090;SDS011;31826;53.572;10.170;2023-08-12T11:07:49;12.90;;;6.22;;
46090;SDS011;31826;53.572;10.170;2023-08-12T11:10:23;9.10;;;3.93;;
46090;SDS011;31826;53.572;10.170;2023-08-12T11:12:53;10.50;;;5.38;;
46090;SDS011;31826;53.572;10.170;2023-08-12T11:17:55;10.73;;;5.30;;
46090;SDS011;31826;53.572;10.170;2023-08-12T11:20:21;9.85;;;4.93;;
46090;SDS011;31826;53.572;10.170;2023-08-12T11:22:46;10.13;;;4.80;;
46090;SDS011;31826;53.572;10.170;2023-08-12T11:25:13;10.77;;;5.03;;
46090;SDS011;31826;53.572;10.170;2023-08-12T11:27:43;7.15;;;3.78;;
46090;SDS011;31826;53.572;10.170;2023-08-12T11:30:13;8.37;;;4.27;;
46090;SDS011;31826;53.572;10.170;2023-08-12T11:32:45;10.10;;;4.85;;
46090;SDS011;31826;53.572;10.170;2023-08-12T11:35:12;19.23;;;5.38;;
46090;SDS011;31826;53.572;10.170;2023-08-12T11:37:39;33.47;;;7.82;;
46090;SDS011;31826;53.572;10.170;2023-08-12T11:40:07;7.57;;;3.40;;
46090;SDS011;31826;53.572;10.170;2023-08-12T11:42:38;8.43;;;3.50;;
46090;SDS011;31826;53.572;10.170;2023-08-12T11:45:05;13.70;;;4.78;;
46090;SDS011;31826;53.572;10.170;2023-08-12T11:47:32;7.90;;;3.97;;
46090;SDS011;31826;53.572;10.170;2023-08-12T11:49:58;9.60;;;4.07;;
46090;SDS011;31826;53.572;10.170;2023-08-12T11:52:26;8.37;;;4.10;;
46090;SDS011;31826;53.572;10.170;2023-08-12T11:54:52;13.37;;;4.73;;
46090;SDS011;31826;53.572;10.170;2023-08-12T11:57:18;9.77;;;4.20;;
46090;SDS011;31826;53.572;10.170;2023-08-12T11:59:44;9.02;;;4.70;;
46090;SDS011;31826;53.572;10.170;2023-08-12T12:02:10;10.43;;;4.45;;
46090;SDS011;31826;53.572;10.170;2023-08-12T12:04:37;9.00;;;4.40;;
46090;SDS011;31826;53.572;10.170;2023-08-12T12:07:03;10.10;;;4.97;;
46090;SDS011;31826;53.572;10.170;2023-08-12T12:09:43;10.00;;;5.00;;
46090;SDS011;31826;53.572;10.170;2023-08-12T12:12:09;10.27;;;5.20;;
46090;SDS011;31826;53.572;10.170;2023-08-12T12:14:36;12.45;;;5.25;;
46090;SDS011;31826;53.572;10.170;2023-08-12T12:17:06;9.73;;;4.97;;
46090;SDS011;31826;53.572;10.170;2023-08-12T12:19:34;11.43;;;5.55;;
46090;SDS011;31826;53.572;10.170;2023-08-12T12:22:01;10.37;;;4.63;;
46090;SDS011;31826;53.572;10.170;2023-08-12T12:24:29;9.93;;;5.20;;
46090;SDS011;31826;53.572;10.170;2023-08-12T12:26:55;12.15;;;5.03;;
46090;SDS011;31826;53.572;10.170;2023-08-12T12:29:22;12.73;;;5.53;;
46090;SDS011;31826;53.572;10.170;2023-08-12T12:31:48;10.95;;;5.05;;
46090;SDS011;31826;53.572;10.170;2023-08-12T12:34:13;10.57;;;5.30;;
46090;SDS011;31826;53.572;10.170;2023-08-12T12:36:39;11.68;;;5.28;;
46090;SDS011;31826;53.572;10.170;2023-08-12T12:39:06;10.80;;;6.03;;
46090;SDS011;31826;53.572;10.170;2023-08-12T12:41:32;9.95;;;5.00;;
46090;SDS011;31826;53.572;10.170;2023-08-12T12:44:01;11.20;;;5.53;;
46090;SDS011;31826;53.572;10.170;2023-08-12T12:46:27;11.05;;;4.80;;
46090;SDS011;31826;53.572;10.170;2023-08-12T12:48:53;10.32;;;5.13;;
46090;SDS011;31826;53.572;10.170;2023-08-12T12:51:19;8.80;;;4.75;;
46090;SDS011;31826;53.572;10.170;2023-08-12T12:53:44;9.60;;;4.80;;
46090;SDS011;31826;53.572;10.170;2023-08-12T12:56:10;8.80;;;4.57;;
46090;SDS011;31826;53.572;10.170;2023-08-12T12:58:36;8.97;;;4.40;;
46090;SDS011;31826;53.572;10.170;2023-08-12T13:01:03;8.07;;;4.22;;
46090;SDS011;31826;53.572;10.170;2023-08-12T13:03:30;7.82;;;4.32;;
46090;SDS011;31826;53.572;10.170;2023-08-12T13:05:56;12.90;;;5.27;;
46090;SDS011;31826;53.572;10.170;2023-08-12T13:08:22;10.65;;;4.90;;
46090;SDS011;31826;53.572;10.170;2023-08-12T13:10:48;10.52;;;5.10;;
46090;SDS011;31826;53.572;10.170;2023-08-12T13:13:15;9.68;;;4.60;;
46090;SDS011;31826;53.572;10.170;2023-08-12T13:15:41;8.63;;;4.53;;
46090;SDS011;31826;53.572;10.170;2023-08-12T13:18:07;9.13;;;4.65;;
46090;SDS011;31826;53.572;10.170;2023-08-12T13:20:34;25.52;;;5.82;;
46090;SDS011;31826;53.572;10.170;2023-08-12T13:23:00;11.52;;;4.65;;
46090;SDS011;31826;53.572;10.170;2023-08-12T13:25:28;7.60;;;4.10;;
46090;SDS011;31826;53.572;10.170;2023-08-12T13:27:55;8.48;;;4.15;;
46090;SDS011;31826;53.572;10.170;2023-08-12T13:30:21;8.38;;;4.50;;
46090;SDS011;31826;53.572;10.170;2023-08-12T13:32:46;9.47;;;4.40;;
46090;SDS011;31826;53.572;10.170;2023-08-12T13:35:12;9.88;;;4.22;;
46090;SDS011;31826;53.572;10.170;2023-08-12T13:37:38;9.35;;;4.47;;
46090;SDS011;31826;53.572;10.170;2023-08-12T13:40:04;9.07;;;4.80;;
46090;SDS011;31826;53.572;10.170;2023-08-12T13:42:30;9.68;;;5.20;;
46090;SDS011;31826;53.572;10.170;2023-08-12T13:44:56;10.85;;;4.90;;
46090;SDS011;31826;53.572;10.170;2023-08-12T13:47:21;10.67;;;5.20;;
46090;SDS011;31826;53.572;10.170;2023-08-12T13:49:47;10.83;;;5.70;;
46090;SDS011;31826;53.572;10.170;2023-08-12T13:52:13;10.05;;;5.65;;
46090;SDS011;31826;53.572;10.170;2023-08-12T13:54:38;10.97;;;6.10;;
46090;SDS011;31826;53.572;10.170;2023-08-12T13:57:04;10.57;;;6.10;;
46090;SDS011;31826;53.572;10.170;2023-08-12T13:59:30;10.90;;;5.88;;
46090;SDS011;31826;53.572;10.170;2023-08-12T14:01:55;11.10;;;5.85;;
46090;SDS011;31826;53.572;10.170;2023-08-12T14:04:21;13.20;;;6.53;;
46090;SDS011;31826;53.572;10.170;2023-08-12T14:06:47;11.02;;;6.18;;
46090;SDS011;31826;53.572;10.170;2023-08-12T14:09:12;14.48;;;7.40;;
46090;SDS011;31826;53.572;10.170;2023-08-12T14:11:39;12.73;;;6.40;;
46090;SDS011;31826;53.572;10.170;2023-08-12T14:14:05;12.37;;;6.50;;
46090;SDS011;31826;53.572;10.170;2023-08-12T14:16:31;13.13;;;6.60;;
46090;SDS011;31826;53.572;10.170;2023-08-12T14:18:57;14.37;;;6.87;;
46090;SDS011;31826;53.572;10.170;2023-08-12T14:21:22;13.98;;;6.80;;
46090;SDS011;31826;53.572;10.170;2023-08-12T14:23:48;10.95;;;6.07;;
46090;SDS011;31826;53.572;10.170;2023-08-12T14:26:14;14.20;;;6.70;;
46090;SDS011;31826;53.572;10.170;2023-08-12T14:28:39;12.10;;;6.53;;
46090;SDS011;31826;53.572;10.170;2023-08-12T14:31:05;13.48;;;7.10;;